createdAt,value
2022-08-26T00:02:07.570Z,5.50
2022-08-26T00:04:37.758Z,5.80
2022-08-26T00:07:06.700Z,6.20
2022-08-26T00:09:39.013Z,6.30
2022-08-26T00:12:13.191Z,5.40
2022-08-26T00:14:44.628Z,6.50
2022-08-26T00:17:14.390Z,6.60
2022-08-26T00:19:45.033Z,8.10
2022-08-26T00:22:14.630Z,8.10
2022-08-26T00:24:50.479Z,6.50
2022-08-26T00:27:19.623Z,5.70
2022-08-26T00:29:49.298Z,5.90
2022-08-26T00:32:18.355Z,5.80
2022-08-26T00:34:48.310Z,5.80
2022-08-26T00:37:16.660Z,5.50
2022-08-26T00:39:45.733Z,5.90
2022-08-26T00:42:14.483Z,5.80
2022-08-26T00:44:44.679Z,5.20
2022-08-26T00:47:19.718Z,5.90
2022-08-26T00:49:48.923Z,5.10
2022-08-26T00:52:22.930Z,5.80
2022-08-26T00:54:57.756Z,6.70
2022-08-26T00:57:26.745Z,6.00
2022-08-26T00:59:58.162Z,6.00
2022-08-26T01:02:26.930Z,5.50
2022-08-26T01:05:00.582Z,6.20
2022-08-26T01:07:31.239Z,6.20
2022-08-26T01:10:00.524Z,6.70
2022-08-26T01:12:32.317Z,5.80
2022-08-26T01:15:01.753Z,6.40
2022-08-26T01:17:30.600Z,6.60
2022-08-26T01:20:06.793Z,6.50
2022-08-26T01:22:44.994Z,6.50
2022-08-26T01:25:14.502Z,6.60
2022-08-26T01:27:44.109Z,6.80
2022-08-26T01:30:15.042Z,6.50
2022-08-26T01:32:43.827Z,5.90
2022-08-26T01:35:12.319Z,6.60
2022-08-26T01:37:41.885Z,6.90
2022-08-26T01:40:17.247Z,6.00
2022-08-26T01:42:47.431Z,7.20
2022-08-26T01:45:19.803Z,7.00
2022-08-26T01:47:56.874Z,6.50
2022-08-26T01:50:30.490Z,6.90
2022-08-26T01:53:02.651Z,7.30
2022-08-26T01:55:32.926Z,6.40
2022-08-26T01:58:05.305Z,6.40
2022-08-26T02:00:34.706Z,6.10
2022-08-26T02:03:18.213Z,6.50
2022-08-26T02:05:51.394Z,6.90
2022-08-26T02:08:24.703Z,6.30
2022-08-26T02:10:55.399Z,6.80
2022-08-26T02:13:27.144Z,6.40
2022-08-26T02:15:57.357Z,7.00
2022-08-26T02:18:27.275Z,6.90
2022-08-26T02:20:57.039Z,6.70
2022-08-26T02:23:25.900Z,6.80
2022-08-26T02:26:04.227Z,7.60
2022-08-26T02:28:36.429Z,7.10
2022-08-26T02:31:05.496Z,6.90
2022-08-26T02:33:36.498Z,6.50
2022-08-26T02:36:06.591Z,6.50
2022-08-26T02:38:36.429Z,7.00
2022-08-26T02:41:05.728Z,6.60
2022-08-26T02:43:36.838Z,7.10
2022-08-26T02:46:07.000Z,7.30
2022-08-26T02:48:35.622Z,7.10
2022-08-26T02:51:05.428Z,7.00
2022-08-26T02:53:34.037Z,6.50
2022-08-26T02:56:06.504Z,7.10
2022-08-26T02:58:36.278Z,6.90
2022-08-26T03:01:05.201Z,7.30
2022-08-26T03:03:34.174Z,6.00
2022-08-26T03:06:02.774Z,7.60
2022-08-26T03:08:31.068Z,7.00
2022-08-26T03:10:59.580Z,7.50
2022-08-26T03:13:30.830Z,6.80
2022-08-26T03:16:01.681Z,6.90
2022-08-26T03:18:30.374Z,7.10
2022-08-26T03:21:06.824Z,7.80
2022-08-26T03:23:35.763Z,7.10
2022-08-26T03:26:04.318Z,7.70
2022-08-26T03:28:33.066Z,7.00
2022-08-26T03:31:01.508Z,7.80
2022-08-26T03:33:30.962Z,7.60
2022-08-26T03:36:03.604Z,7.30
2022-08-26T03:38:32.978Z,7.90
2022-08-26T03:41:01.574Z,8.10
2022-08-26T03:43:31.224Z,8.00
2022-08-26T03:46:04.257Z,9.30
2022-08-26T03:51:04.721Z,7.80
2022-08-26T03:53:33.071Z,8.00
2022-08-26T03:56:05.684Z,7.90
2022-08-26T03:58:34.288Z,7.30
2022-08-26T04:01:03.253Z,7.10
2022-08-26T04:03:50.287Z,7.70
2022-08-26T04:06:19.070Z,8.40
2022-08-26T04:08:47.998Z,8.50
2022-08-26T04:11:21.710Z,8.80
2022-08-26T04:13:50.742Z,9.70
2022-08-26T04:16:19.154Z,9.10
2022-08-26T04:18:47.755Z,8.30
2022-08-26T04:21:16.400Z,8.20
2022-08-26T04:23:47.679Z,8.60
2022-08-26T04:26:17.845Z,8.70
2022-08-26T04:28:46.317Z,8.80
2022-08-26T04:31:17.775Z,8.90
2022-08-26T04:33:49.931Z,8.30
2022-08-26T04:36:19.810Z,7.80
2022-08-26T04:38:50.279Z,8.10
2022-08-26T04:41:20.522Z,8.30
2022-08-26T04:43:49.803Z,8.10
2022-08-26T04:46:22.144Z,8.00
2022-08-26T04:48:51.784Z,11.10
2022-08-26T04:51:27.113Z,9.10
2022-08-26T04:53:57.542Z,8.60
2022-08-26T04:56:26.825Z,7.80
2022-08-26T04:58:55.535Z,7.70
2022-08-26T05:01:24.198Z,7.00
2022-08-26T05:03:52.801Z,7.90
2022-08-26T05:06:21.155Z,7.20
2022-08-26T05:08:50.931Z,7.20
2022-08-26T05:11:21.426Z,6.40
2022-08-26T05:13:51.178Z,9.70
2022-08-26T05:16:19.785Z,7.50
2022-08-26T05:18:48.812Z,6.20
2022-08-26T05:21:19.662Z,5.00
2022-08-26T05:23:50.140Z,6.10
2022-08-26T05:26:23.195Z,5.60
2022-08-26T05:28:54.788Z,5.60
2022-08-26T05:31:26.569Z,5.10
2022-08-26T05:33:57.109Z,5.90
2022-08-26T05:36:28.249Z,6.40
2022-08-26T05:38:57.760Z,5.00
2022-08-26T05:41:36.195Z,5.40
2022-08-26T05:44:07.891Z,7.70
2022-08-26T05:46:38.803Z,6.90
2022-08-26T05:49:12.214Z,6.00
2022-08-26T05:51:41.752Z,5.40
2022-08-26T05:54:10.729Z,5.50
2022-08-26T05:56:39.809Z,5.40
2022-08-26T05:59:14.336Z,6.40
2022-08-26T06:01:43.389Z,5.30
2022-08-26T06:04:12.435Z,5.40
2022-08-26T06:06:41.162Z,6.00
2022-08-26T06:09:10.965Z,5.20
2022-08-26T06:11:40.254Z,5.30
2022-08-26T06:14:09.367Z,5.00
2022-08-26T06:16:40.734Z,7.10
2022-08-26T06:19:11.594Z,5.80
2022-08-26T06:21:42.817Z,5.60
2022-08-26T06:24:47.459Z,6.00
2022-08-26T06:27:16.522Z,5.40
2022-08-26T06:29:46.741Z,5.30
2022-08-26T06:32:15.227Z,4.90
2022-08-26T06:34:44.219Z,5.20
2022-08-26T06:37:12.549Z,5.50
2022-08-26T06:39:41.387Z,5.40
2022-08-26T06:42:10.945Z,6.10
2022-08-26T06:44:41.200Z,6.00
2022-08-26T06:47:10.109Z,5.90
2022-08-26T06:49:38.552Z,6.40
2022-08-26T06:52:08.245Z,4.90
2022-08-26T06:54:38.890Z,5.80
2022-08-26T06:57:08.291Z,6.30
2022-08-26T06:59:45.427Z,5.90
2022-08-26T07:02:15.210Z,5.20
2022-08-26T07:04:47.747Z,5.20
2022-08-26T07:07:16.959Z,7.10
2022-08-26T07:09:48.013Z,5.10
2022-08-26T07:12:21.178Z,6.20
2022-08-26T07:14:53.529Z,6.20
2022-08-26T07:17:28.176Z,7.20
2022-08-26T07:20:00.119Z,6.00
2022-08-26T07:22:29.117Z,6.10
2022-08-26T07:24:58.972Z,6.00
2022-08-26T07:27:32.353Z,5.70
2022-08-26T07:30:03.171Z,7.90
2022-08-26T07:32:31.969Z,5.10
2022-08-26T07:35:00.738Z,6.40
2022-08-26T07:37:29.108Z,6.30
2022-08-26T07:40:06.891Z,6.30
2022-08-26T07:42:35.556Z,5.50
2022-08-26T07:45:05.535Z,6.20
2022-08-26T07:47:33.870Z,6.30
2022-08-26T07:50:08.753Z,6.50
2022-08-26T07:52:43.252Z,6.20
2022-08-26T07:55:13.956Z,6.00
2022-08-26T07:57:43.513Z,5.40
2022-08-26T08:00:15.469Z,5.70
2022-08-26T08:02:44.833Z,6.60
2022-08-26T08:05:18.209Z,5.90
2022-08-26T08:07:48.093Z,6.20
2022-08-26T08:10:25.298Z,5.90
2022-08-26T08:13:00.719Z,6.40
2022-08-26T08:15:37.356Z,6.10
2022-08-26T08:18:15.216Z,6.70
2022-08-26T08:20:54.638Z,6.20
2022-08-26T08:23:34.993Z,6.10
2022-08-26T08:26:09.704Z,6.30
2022-08-26T08:28:39.253Z,5.90
2022-08-26T08:31:09.652Z,5.10
2022-08-26T08:33:39.072Z,5.60
2022-08-26T08:36:09.309Z,5.90
2022-08-26T08:38:38.097Z,5.70
2022-08-26T08:41:07.304Z,5.60
2022-08-26T08:43:41.563Z,3.90
2022-08-26T08:46:13.675Z,6.20
2022-08-26T08:48:49.006Z,5.50
2022-08-26T08:51:24.606Z,5.80
2022-08-26T08:53:54.750Z,5.90
2022-08-26T08:56:27.248Z,5.90
2022-08-26T08:59:04.040Z,5.10
2022-08-26T09:01:41.590Z,5.20
2022-08-26T09:04:23.343Z,4.90
2022-08-26T09:06:55.658Z,4.90
2022-08-26T09:09:34.630Z,5.30
2022-08-26T09:12:08.612Z,5.00
2022-08-26T09:14:38.007Z,4.00
2022-08-26T09:17:13.965Z,4.50
2022-08-26T09:19:47.217Z,4.20
2022-08-26T09:22:31.035Z,4.80
2022-08-26T09:24:59.709Z,4.60
2022-08-26T09:27:39.675Z,4.50
2022-08-26T09:30:11.516Z,4.60
2022-08-26T09:32:41.433Z,4.40
2022-08-26T09:35:25.546Z,4.40
2022-08-26T09:37:54.637Z,4.70
2022-08-26T09:40:28.383Z,4.10
2022-08-26T09:43:13.529Z,4.20
2022-08-26T09:45:50.764Z,4.70
2022-08-26T09:48:36.421Z,3.60
2022-08-26T09:51:28.192Z,4.50
2022-08-26T09:54:00.509Z,4.40
2022-08-26T09:56:32.081Z,4.80
2022-08-26T09:59:04.227Z,5.30
2022-08-26T10:01:37.386Z,4.30
2022-08-26T10:04:09.936Z,4.00
2022-08-26T10:06:43.759Z,4.70
2022-08-26T10:09:15.421Z,3.70
2022-08-26T10:11:47.759Z,4.00
2022-08-26T10:14:21.384Z,3.50
2022-08-26T10:16:54.388Z,4.50
2022-08-26T10:19:55.876Z,3.90
2022-08-26T10:22:25.177Z,3.00
2022-08-26T10:24:58.231Z,3.70
2022-08-26T10:27:35.413Z,4.20
2022-08-26T10:30:07.351Z,4.20
2022-08-26T10:32:41.380Z,4.20
2022-08-26T10:35:13.542Z,4.70
2022-08-26T10:37:46.071Z,4.60
2022-08-26T10:40:18.645Z,4.70
2022-08-26T10:42:52.089Z,4.60
2022-08-26T10:45:26.381Z,4.10
2022-08-26T10:48:00.749Z,4.30
2022-08-26T10:50:33.138Z,4.00
2022-08-26T10:53:07.606Z,4.30
2022-08-26T10:55:41.342Z,4.40
2022-08-26T11:01:22.804Z,4.70
2022-08-26T11:03:59.653Z,4.50
2022-08-26T11:06:31.551Z,4.60
2022-08-26T11:09:02.760Z,5.80
2022-08-26T11:11:48.958Z,4.90
2022-08-26T11:14:58.787Z,4.50
2022-08-26T11:17:57.562Z,4.80
2022-08-26T11:20:36.710Z,4.70
2022-08-26T11:23:50.218Z,4.70
2022-08-26T11:26:36.373Z,6.40
2022-08-26T11:29:13.516Z,4.50
2022-08-26T11:32:07.339Z,4.90
2022-08-26T11:34:58.800Z,4.90
2022-08-26T11:37:35.887Z,4.80
2022-08-26T11:40:12.853Z,4.80
2022-08-26T11:42:44.358Z,5.00
2022-08-26T11:45:19.620Z,3.60
2022-08-26T11:47:49.253Z,4.40
2022-08-26T11:50:23.505Z,4.30
2022-08-26T11:53:01.329Z,4.00
2022-08-26T11:55:32.325Z,5.00
2022-08-26T11:58:04.819Z,5.20
2022-08-26T12:03:20.809Z,4.80
2022-08-26T12:05:53.234Z,3.70
2022-08-26T12:08:25.941Z,3.90
2022-08-26T12:11:06.585Z,4.60
2022-08-26T12:13:38.392Z,4.80
2022-08-26T12:16:08.272Z,4.00
2022-08-26T12:18:39.598Z,4.20
2022-08-26T12:21:15.865Z,3.70
2022-08-26T12:23:48.237Z,4.00
2022-08-26T12:26:27.203Z,4.00
2022-08-26T12:29:02.212Z,4.00
2022-08-26T12:31:49.907Z,3.90
2022-08-26T12:34:19.623Z,4.20
2022-08-26T12:36:51.163Z,3.20
2022-08-26T12:39:28.608Z,3.20
2022-08-26T12:41:58.624Z,3.70
2022-08-26T12:44:38.344Z,3.40
2022-08-26T12:47:10.726Z,4.00
2022-08-26T12:49:43.987Z,3.60
2022-08-26T12:52:29.549Z,4.00
2022-08-26T12:55:00.143Z,3.80
2022-08-26T12:57:31.318Z,4.00
2022-08-26T13:00:30.346Z,4.50
2022-08-26T13:03:01.290Z,4.90
2022-08-26T13:05:32.940Z,4.50
2022-08-26T13:08:13.885Z,4.50
2022-08-26T13:10:45.750Z,4.40
2022-08-26T13:13:14.798Z,4.70
2022-08-26T13:15:45.724Z,5.10
2022-08-26T13:18:15.092Z,4.80
2022-08-26T13:20:46.383Z,5.00
2022-08-26T13:23:18.898Z,4.80
2022-08-26T13:25:49.862Z,4.90
2022-08-26T13:28:22.396Z,5.10
2022-08-26T13:33:24.996Z,5.00
2022-08-26T13:35:54.485Z,4.90
2022-08-26T13:38:33.752Z,5.10
2022-08-26T13:41:03.675Z,5.40
2022-08-26T13:43:32.621Z,5.00
2022-08-26T13:46:01.640Z,5.80
2022-08-26T13:48:30.910Z,5.90
2022-08-26T13:50:59.998Z,5.20
2022-08-26T13:53:29.956Z,5.50
2022-08-26T13:55:59.498Z,5.90
2022-08-26T13:58:28.928Z,5.30
2022-08-26T14:00:58.487Z,5.20
2022-08-26T14:03:27.693Z,5.50
2022-08-26T14:05:56.565Z,4.90
2022-08-26T14:08:26.047Z,6.00
2022-08-26T14:10:54.521Z,5.80
2022-08-26T14:13:23.225Z,5.40
2022-08-26T14:15:53.173Z,5.90
2022-08-26T14:18:24.888Z,5.50
2022-08-26T14:20:55.817Z,5.40
2022-08-26T14:23:25.178Z,5.50
2022-08-26T14:25:54.280Z,6.00
2022-08-26T14:28:22.699Z,5.80
2022-08-26T14:30:53.896Z,5.50
2022-08-26T14:33:26.250Z,5.70
2022-08-26T14:36:15.641Z,6.50
2022-08-26T14:38:44.397Z,5.60
2022-08-26T14:41:13.438Z,6.10
2022-08-26T14:43:47.025Z,5.40
2022-08-26T14:46:16.054Z,5.30
2022-08-26T14:48:45.072Z,6.30
2022-08-26T14:51:13.617Z,6.20
2022-08-26T14:54:06.814Z,6.20
2022-08-26T14:56:40.334Z,6.00
2022-08-26T14:59:08.930Z,6.50
2022-08-26T15:01:43.797Z,6.20
2022-08-26T15:04:13.005Z,6.30
2022-08-26T15:06:41.471Z,4.80
2022-08-26T15:09:09.991Z,5.50
2022-08-26T15:11:38.734Z,5.20
2022-08-26T15:14:07.885Z,6.20
2022-08-26T15:16:48.483Z,5.70
2022-08-26T15:19:20.540Z,5.20
2022-08-26T15:21:50.614Z,5.60
2022-08-26T15:24:24.355Z,6.00
2022-08-26T15:26:53.603Z,5.90
2022-08-26T15:29:28.871Z,5.20
2022-08-26T15:31:59.338Z,4.50
2022-08-26T15:34:32.463Z,5.10
2022-08-26T15:37:01.585Z,5.50
2022-08-26T15:39:29.963Z,5.40
2022-08-26T15:41:59.223Z,5.30
2022-08-26T15:44:29.821Z,5.20
2022-08-26T15:46:59.981Z,4.30
2022-08-26T15:49:29.550Z,4.70
2022-08-26T15:52:00.809Z,4.80
2022-08-26T15:54:29.712Z,4.80
2022-08-26T15:57:01.773Z,4.80
2022-08-26T15:59:31.098Z,4.80
2022-08-26T16:02:00.093Z,4.10
2022-08-26T16:04:29.560Z,4.40
2022-08-26T16:06:58.329Z,4.60
2022-08-26T16:09:27.742Z,4.70
2022-08-26T16:12:00.536Z,4.40
2022-08-26T16:14:29.855Z,4.00
2022-08-26T16:16:59.696Z,4.00
2022-08-26T16:19:28.413Z,4.90
2022-08-26T16:21:56.816Z,4.20
2022-08-26T16:24:30.499Z,4.10
2022-08-26T16:26:59.975Z,3.90
2022-08-26T16:29:28.533Z,3.60
2022-08-26T16:31:57.047Z,3.80
2022-08-26T16:34:25.770Z,4.30
2022-08-26T16:36:54.621Z,3.70
2022-08-26T16:39:23.846Z,5.00
2022-08-26T16:41:53.905Z,5.40
2022-08-26T16:44:22.872Z,5.80
2022-08-26T16:46:52.981Z,4.80
2022-08-26T16:49:27.748Z,4.50
2022-08-26T16:51:56.267Z,4.40
2022-08-26T16:54:25.839Z,4.80
2022-08-26T16:56:55.237Z,4.90
2022-08-26T16:59:23.927Z,5.00
2022-08-26T17:01:53.162Z,4.60
2022-08-26T17:04:22.831Z,5.10
2022-08-26T17:06:53.348Z,4.80
2022-08-26T17:09:23.306Z,5.10
2022-08-26T17:11:51.964Z,5.20
2022-08-26T17:14:21.085Z,6.20
2022-08-26T17:16:53.035Z,5.90
2022-08-26T17:19:24.769Z,5.50
2022-08-26T17:21:53.697Z,5.00
2022-08-26T17:24:22.046Z,4.90
2022-08-26T17:26:50.764Z,5.30
2022-08-26T17:29:25.178Z,5.80
2022-08-26T17:31:56.209Z,5.40
2022-08-26T17:34:25.468Z,5.40
2022-08-26T17:36:54.477Z,6.70
2022-08-26T17:39:24.942Z,6.30
2022-08-26T17:41:53.430Z,5.30
2022-08-26T17:44:21.820Z,5.30
2022-08-26T17:46:50.275Z,6.00
2022-08-26T17:49:18.780Z,5.80
2022-08-26T17:51:47.200Z,5.80
2022-08-26T17:54:16.373Z,5.70
2022-08-26T17:56:45.178Z,5.60
2022-08-26T17:59:14.012Z,7.10
2022-08-26T18:01:42.736Z,6.40
2022-08-26T18:04:14.189Z,6.80
2022-08-26T18:06:43.108Z,5.90
2022-08-26T18:09:13.890Z,6.10
2022-08-26T18:11:42.675Z,6.00
2022-08-26T18:14:11.075Z,6.20
2022-08-26T18:16:41.290Z,6.90
2022-08-26T18:19:09.725Z,6.00
2022-08-26T18:21:39.950Z,6.20
2022-08-26T18:24:13.339Z,6.50
2022-08-26T18:26:48.444Z,6.60
2022-08-26T18:29:18.864Z,6.60
2022-08-26T18:31:50.170Z,5.90
2022-08-26T18:34:18.850Z,6.30
2022-08-26T18:36:51.055Z,6.50
2022-08-26T18:39:23.455Z,7.50
2022-08-26T18:41:52.887Z,6.20
2022-08-26T18:44:24.266Z,6.20
2022-08-26T18:46:53.192Z,7.00
2022-08-26T18:49:22.133Z,6.70
2022-08-26T18:51:51.836Z,7.10
2022-08-26T18:56:54.645Z,6.20
2022-08-26T18:59:28.385Z,6.10
2022-08-26T19:01:59.768Z,6.60
2022-08-26T19:04:28.558Z,6.10
2022-08-26T19:06:56.801Z,6.40
2022-08-26T19:09:26.045Z,6.70
2022-08-26T19:14:25.265Z,6.80
2022-08-26T19:16:54.671Z,6.30
2022-08-26T19:19:23.671Z,6.30
2022-08-26T19:21:54.733Z,6.90
2022-08-26T19:24:23.398Z,6.30
2022-08-26T19:27:00.746Z,7.00
2022-08-26T19:29:31.513Z,7.30
2022-08-26T19:32:01.396Z,6.50
2022-08-26T19:34:30.926Z,6.10
2022-08-26T19:36:59.385Z,6.80
2022-08-26T19:39:27.937Z,7.00
2022-08-26T19:41:56.366Z,8.50
2022-08-26T19:44:44.149Z,7.30
2022-08-26T19:47:14.066Z,7.70
2022-08-26T19:49:42.469Z,7.30
2022-08-26T19:52:11.757Z,6.20
2022-08-26T19:54:41.141Z,7.30
2022-08-26T19:57:09.470Z,7.80
2022-08-26T19:59:37.940Z,7.80
2022-08-26T20:02:10.648Z,8.00
2022-08-26T20:04:41.393Z,8.60
2022-08-26T20:07:13.087Z,8.00
2022-08-26T20:09:47.705Z,8.30
2022-08-26T20:12:18.397Z,7.80
2022-08-26T20:14:47.376Z,7.80
2022-08-26T20:17:17.039Z,7.30
2022-08-26T20:20:26.694Z,7.80
2022-08-26T20:23:05.013Z,7.20
2022-08-26T20:25:34.218Z,6.70
2022-08-26T20:28:04.971Z,7.30
2022-08-26T20:30:36.026Z,8.00
2022-08-26T20:33:06.699Z,7.80
2022-08-26T20:35:35.360Z,7.30
2022-08-26T20:38:05.153Z,7.10
2022-08-26T20:40:35.001Z,7.50
2022-08-26T20:43:05.866Z,6.90
2022-08-26T20:45:35.759Z,7.40
2022-08-26T20:48:05.216Z,7.70
2022-08-26T20:50:34.211Z,7.60
2022-08-26T20:53:06.864Z,7.70
2022-08-26T20:55:35.794Z,6.90
2022-08-26T20:58:04.687Z,7.10
2022-08-26T21:00:32.965Z,7.10
2022-08-26T21:03:01.891Z,6.50
2022-08-26T21:05:30.597Z,8.70
2022-08-26T21:07:59.701Z,8.00
2022-08-26T21:10:30.125Z,6.90
2022-08-26T21:12:59.419Z,7.80
2022-08-26T21:15:27.801Z,7.20
2022-08-26T21:17:56.806Z,7.90
2022-08-26T21:20:25.488Z,7.70
2022-08-26T21:22:56.204Z,8.10
2022-08-26T21:25:25.574Z,7.50
2022-08-26T21:27:55.172Z,7.80
2022-08-26T21:30:24.112Z,7.60
2022-08-26T21:32:53.735Z,8.10
2022-08-26T21:35:22.594Z,7.80
2022-08-26T21:37:51.494Z,8.50
2022-08-26T21:40:21.599Z,7.60
2022-08-26T21:42:50.262Z,7.90
2022-08-26T21:45:21.740Z,8.60
2022-08-26T21:47:51.215Z,9.10
2022-08-26T21:50:19.848Z,8.30
2022-08-26T21:52:48.308Z,9.00
2022-08-26T21:55:17.688Z,7.60
2022-08-26T21:57:45.911Z,7.80
2022-08-26T22:00:18.720Z,8.40
2022-08-26T22:02:49.716Z,8.40
2022-08-26T22:05:18.683Z,8.70
2022-08-26T22:07:47.118Z,8.50
2022-08-26T22:10:15.463Z,8.80
2022-08-26T22:12:44.170Z,8.40
2022-08-26T22:15:12.999Z,9.10
2022-08-26T22:17:41.668Z,8.60
2022-08-26T22:20:16.735Z,8.40
2022-08-26T22:22:45.736Z,8.70
2022-08-26T22:25:15.071Z,7.90
2022-08-26T22:27:48.638Z,8.40
2022-08-26T22:30:19.301Z,8.20
2022-08-26T22:32:50.216Z,7.90
2022-08-26T22:35:29.025Z,8.50
2022-08-26T22:37:58.903Z,9.40
2022-08-26T22:40:28.527Z,8.00
2022-08-26T22:42:59.975Z,8.70
2022-08-26T22:45:30.837Z,8.60
2022-08-26T22:47:59.798Z,8.70
2022-08-26T22:50:32.407Z,8.70
2022-08-26T22:53:01.547Z,9.90
2022-08-26T22:55:30.024Z,9.50
2022-08-26T22:57:59.013Z,8.90
2022-08-26T23:00:32.010Z,8.70
2022-08-26T23:05:32.281Z,8.80
2022-08-26T23:08:01.548Z,9.70
2022-08-26T23:10:30.448Z,9.20
2022-08-26T23:13:01.320Z,8.60
2022-08-26T23:15:30.991Z,8.80
2022-08-26T23:18:00.485Z,9.20
2022-08-26T23:20:29.831Z,9.10
2022-08-26T23:22:59.611Z,9.50
2022-08-26T23:25:29.363Z,8.90
2022-08-26T23:27:59.228Z,9.70
2022-08-26T23:30:30.919Z,9.90
2022-08-26T23:32:59.295Z,9.40
2022-08-26T23:35:28.414Z,9.80
2022-08-26T23:37:58.918Z,9.60
2022-08-26T23:40:29.687Z,9.30
2022-08-26T23:43:00.038Z,9.10
2022-08-26T23:45:28.760Z,8.90
2022-08-26T23:47:57.100Z,9.10
2022-08-26T23:50:47.955Z,9.20
2022-08-26T23:53:19.923Z,9.50
2022-08-26T23:55:50.740Z,8.90
2022-08-26T23:58:20.835Z,9.20
